createdAt,value
2022-12-31T00:01:14.407Z,12.80
2022-12-31T00:03:43.784Z,12.90
2022-12-31T00:06:18.093Z,12.90
2022-12-31T00:08:47.038Z,13.00
2022-12-31T00:11:17.849Z,13.00
2022-12-31T00:13:46.998Z,13.00
2022-12-31T00:16:19.121Z,13.00
2022-12-31T00:18:49.283Z,13.10
2022-12-31T00:21:19.445Z,13.10
2022-12-31T00:23:48.112Z,13.20
2022-12-31T00:26:21.081Z,13.20
2022-12-31T00:28:50.116Z,13.20
2022-12-31T00:31:21.528Z,13.20
2022-12-31T00:33:50.878Z,13.30
2022-12-31T00:36:21.794Z,13.30
2022-12-31T00:38:51.853Z,13.30
2022-12-31T00:41:22.816Z,13.30
2022-12-31T00:43:51.684Z,13.30
2022-12-31T00:46:21.021Z,13.40
2022-12-31T00:48:49.629Z,13.40
2022-12-31T00:51:21.265Z,13.40
2022-12-31T00:53:49.897Z,13.40
2022-12-31T00:56:23.508Z,13.40
2022-12-31T00:58:52.685Z,13.50
2022-12-31T01:01:23.124Z,13.50
2022-12-31T01:03:53.610Z,13.50
2022-12-31T01:06:22.793Z,13.60
2022-12-31T01:08:52.182Z,13.60
2022-12-31T01:11:23.109Z,13.60
2022-12-31T01:13:55.551Z,13.70
2022-12-31T01:16:26.488Z,13.70
2022-12-31T01:18:55.706Z,13.60
2022-12-31T01:21:24.246Z,13.70
2022-12-31T01:23:52.855Z,13.70
2022-12-31T01:26:23.085Z,13.70
2022-12-31T01:28:51.766Z,13.80
2022-12-31T01:31:22.765Z,13.80
2022-12-31T01:33:52.355Z,13.80
2022-12-31T01:36:26.002Z,13.90
2022-12-31T01:38:55.975Z,13.90
2022-12-31T01:41:29.126Z,13.90
2022-12-31T01:43:59.601Z,13.90
2022-12-31T01:46:35.800Z,13.90
2022-12-31T01:49:10.707Z,13.90
2022-12-31T01:51:40.908Z,14.00
2022-12-31T01:54:13.545Z,14.00
2022-12-31T01:56:45.674Z,14.00
2022-12-31T01:59:17.399Z,14.00
2022-12-31T02:01:48.252Z,14.00
2022-12-31T02:04:17.936Z,14.10
2022-12-31T02:06:51.254Z,14.20
2022-12-31T02:09:20.553Z,14.30
2022-12-31T02:11:51.163Z,14.40
2022-12-31T02:14:22.993Z,14.40
2022-12-31T02:16:59.613Z,14.40
2022-12-31T02:20:05.496Z,14.50
2022-12-31T02:22:53.625Z,14.50
2022-12-31T02:25:37.994Z,14.50
2022-12-31T02:28:21.518Z,14.60
2022-12-31T02:30:55.294Z,14.60
2022-12-31T02:33:29.513Z,14.70
2022-12-31T02:36:01.350Z,14.80
2022-12-31T02:38:33.919Z,14.90
2022-12-31T02:41:02.528Z,15.00
2022-12-31T02:43:31.142Z,15.00
2022-12-31T02:46:11.574Z,15.10
2022-12-31T02:48:47.910Z,15.10
2022-12-31T02:51:30.160Z,15.20
2022-12-31T02:54:20.008Z,15.20
2022-12-31T02:56:58.666Z,15.20
2022-12-31T02:59:50.230Z,15.20
2022-12-31T03:02:23.999Z,15.20
2022-12-31T03:04:54.441Z,15.20
2022-12-31T03:07:25.293Z,15.10
2022-12-31T03:09:54.698Z,15.20
2022-12-31T03:12:42.825Z,15.10
2022-12-31T03:15:20.699Z,15.20
2022-12-31T03:17:58.113Z,15.20
2022-12-31T03:20:48.392Z,15.20
2022-12-31T03:23:21.824Z,15.10
2022-12-31T03:25:49.552Z,15.10
2022-12-31T03:28:20.445Z,15.20
2022-12-31T03:30:51.583Z,15.10
2022-12-31T03:33:22.807Z,15.10
2022-12-31T03:35:52.069Z,15.10
2022-12-31T03:38:21.376Z,15.10
2022-12-31T03:40:51.564Z,15.10
2022-12-31T03:43:21.302Z,15.20
2022-12-31T03:45:51.720Z,15.20
2022-12-31T03:48:23.059Z,15.20
2022-12-31T03:50:52.185Z,15.30
2022-12-31T03:53:21.065Z,15.30
2022-12-31T03:55:52.885Z,15.30
2022-12-31T03:58:22.161Z,15.30
2022-12-31T04:00:51.481Z,15.30
2022-12-31T04:03:21.455Z,15.30
2022-12-31T04:05:54.201Z,15.40
2022-12-31T04:08:22.727Z,15.30
2022-12-31T04:10:51.295Z,15.40
2022-12-31T04:13:19.962Z,15.40
2022-12-31T04:15:51.133Z,15.40
2022-12-31T04:18:21.131Z,15.40
2022-12-31T04:20:49.742Z,15.30
2022-12-31T04:23:18.338Z,15.40
2022-12-31T04:25:46.859Z,15.40
2022-12-31T04:28:15.417Z,15.40
2022-12-31T04:30:44.883Z,15.50
2022-12-31T04:33:13.449Z,15.50
2022-12-31T04:35:43.350Z,15.50
2022-12-31T04:38:11.975Z,15.50
2022-12-31T04:41:00.676Z,15.50
2022-12-31T04:43:29.282Z,15.50
2022-12-31T04:45:57.910Z,15.50
2022-12-31T04:48:26.507Z,15.50
2022-12-31T04:50:56.395Z,15.60
2022-12-31T04:53:25.017Z,15.60
2022-12-31T04:55:53.837Z,15.60
2022-12-31T04:58:22.835Z,15.70
2022-12-31T05:00:54.641Z,15.70
2022-12-31T05:03:25.257Z,15.70
2022-12-31T05:05:53.921Z,15.70
2022-12-31T05:08:23.815Z,15.70
2022-12-31T05:10:52.491Z,15.70
2022-12-31T05:13:21.287Z,15.80
2022-12-31T05:15:49.818Z,15.80
2022-12-31T05:18:18.654Z,15.80
2022-12-31T05:20:47.644Z,15.90
2022-12-31T05:23:17.351Z,16.00
2022-12-31T05:25:48.680Z,16.00
2022-12-31T05:28:19.384Z,16.00
2022-12-31T05:30:50.566Z,16.10
2022-12-31T05:33:19.920Z,16.10
2022-12-31T05:35:48.491Z,16.10
2022-12-31T05:38:17.136Z,16.10
2022-12-31T05:40:47.225Z,16.10
2022-12-31T05:43:15.862Z,16.10
2022-12-31T05:45:44.447Z,16.10
2022-12-31T05:48:12.997Z,16.00
2022-12-31T05:50:41.574Z,16.10
2022-12-31T05:53:10.201Z,16.10
2022-12-31T05:55:38.729Z,16.00
2022-12-31T05:58:08.694Z,16.10
2022-12-31T06:00:39.391Z,16.10
2022-12-31T06:03:08.019Z,16.10
2022-12-31T06:05:39.816Z,16.10
2022-12-31T06:08:08.429Z,16.20
2022-12-31T06:10:36.926Z,16.10
2022-12-31T06:13:05.542Z,16.20
2022-12-31T06:15:38.571Z,16.20
2022-12-31T06:18:07.890Z,16.10
2022-12-31T06:20:37.883Z,16.20
2022-12-31T06:23:06.918Z,16.20
2022-12-31T06:25:37.989Z,16.10
2022-12-31T06:28:07.578Z,16.20
2022-12-31T06:30:37.769Z,16.10
2022-12-31T06:33:07.122Z,16.10
2022-12-31T06:35:35.674Z,16.10
2022-12-31T06:38:04.120Z,16.20
2022-12-31T06:40:32.657Z,16.20
2022-12-31T06:43:02.047Z,16.30
2022-12-31T06:45:30.615Z,16.30
2022-12-31T06:48:00.503Z,16.30
2022-12-31T06:50:29.053Z,16.40
2022-12-31T06:52:57.590Z,16.40
2022-12-31T06:55:26.902Z,16.40
2022-12-31T06:57:55.884Z,16.40
2022-12-31T07:00:24.993Z,16.40
2022-12-31T07:03:07.829Z,16.40
2022-12-31T07:05:45.833Z,16.40
2022-12-31T07:08:38.270Z,16.40
2022-12-31T07:11:10.759Z,16.40
2022-12-31T07:13:56.787Z,16.40
2022-12-31T07:16:43.543Z,16.40
2022-12-31T07:19:23.029Z,16.40
2022-12-31T07:21:54.259Z,16.40
2022-12-31T07:24:23.685Z,16.50
2022-12-31T07:27:06.120Z,16.40
2022-12-31T07:29:46.008Z,16.40
2022-12-31T07:32:26.701Z,16.30
2022-12-31T07:35:05.416Z,16.40
2022-12-31T07:37:45.533Z,16.40
2022-12-31T07:40:19.498Z,16.40
2022-12-31T07:43:03.391Z,16.40
2022-12-31T07:45:40.211Z,16.40
2022-12-31T07:48:22.163Z,16.50
2022-12-31T07:50:54.429Z,16.50
2022-12-31T07:53:23.685Z,16.50
2022-12-31T07:55:56.218Z,16.60
2022-12-31T07:58:32.731Z,16.50
2022-12-31T08:01:02.019Z,16.60
2022-12-31T08:03:48.254Z,16.60
2022-12-31T08:06:26.304Z,16.70
2022-12-31T08:09:04.204Z,16.70
2022-12-31T08:11:39.318Z,16.70
2022-12-31T08:14:11.120Z,16.70
2022-12-31T08:16:40.628Z,16.70
2022-12-31T08:19:17.883Z,16.70
2022-12-31T08:21:57.128Z,16.80
2022-12-31T08:24:35.722Z,16.70
2022-12-31T08:27:09.241Z,16.70
2022-12-31T08:29:45.922Z,16.70
2022-12-31T08:32:21.928Z,16.70
2022-12-31T08:34:59.404Z,16.80
2022-12-31T08:37:37.729Z,16.80
2022-12-31T08:40:19.880Z,16.80
2022-12-31T08:43:05.179Z,16.80
2022-12-31T08:45:38.672Z,16.80
2022-12-31T08:48:19.813Z,16.80
2022-12-31T08:50:48.884Z,16.80
2022-12-31T08:53:19.487Z,16.80
2022-12-31T08:55:50.750Z,16.90
2022-12-31T08:58:29.857Z,16.90
2022-12-31T09:00:59.916Z,17.00
2022-12-31T09:03:42.596Z,17.00
2022-12-31T09:06:20.035Z,17.00
2022-12-31T09:08:56.016Z,17.00
2022-12-31T09:11:30.329Z,17.00
2022-12-31T09:14:17.676Z,17.10
2022-12-31T09:16:54.866Z,17.10
2022-12-31T09:19:23.430Z,17.10
2022-12-31T09:21:52.606Z,17.10
2022-12-31T09:24:23.249Z,17.10
2022-12-31T09:27:02.540Z,17.20
2022-12-31T09:29:43.150Z,17.20
2022-12-31T09:32:20.758Z,17.30
2022-12-31T09:34:56.591Z,17.30
2022-12-31T09:37:36.986Z,17.40
2022-12-31T09:40:45.280Z,17.40
2022-12-31T09:43:36.204Z,17.50
2022-12-31T09:46:32.251Z,17.60
2022-12-31T09:49:33.932Z,17.60
2022-12-31T09:52:14.808Z,17.70
2022-12-31T09:54:54.457Z,17.70
2022-12-31T09:57:39.261Z,17.70
2022-12-31T10:00:15.472Z,17.70
2022-12-31T10:03:08.307Z,17.70
2022-12-31T10:05:57.137Z,17.70
2022-12-31T10:08:48.986Z,17.80
2022-12-31T10:11:25.181Z,17.80
2022-12-31T10:14:09.155Z,17.80
2022-12-31T10:17:04.776Z,17.80
2022-12-31T10:19:46.934Z,17.80
2022-12-31T10:22:43.774Z,17.80
2022-12-31T10:25:48.065Z,17.80
2022-12-31T10:28:31.425Z,17.80
2022-12-31T10:31:14.562Z,17.80
2022-12-31T10:33:46.198Z,17.80
2022-12-31T10:36:20.891Z,17.80
2022-12-31T10:39:05.071Z,17.80
2022-12-31T10:42:28.379Z,17.80
2022-12-31T10:45:36.703Z,17.90
2022-12-31T10:48:38.125Z,17.90
2022-12-31T10:51:35.362Z,17.90
2022-12-31T10:54:41.306Z,17.90
2022-12-31T10:57:36.179Z,17.90
2022-12-31T11:00:17.647Z,17.90
2022-12-31T11:03:29.918Z,17.90
2022-12-31T11:06:37.146Z,17.80
2022-12-31T11:09:44.881Z,17.80
2022-12-31T11:12:36.642Z,17.80
2022-12-31T11:15:30.440Z,17.80
2022-12-31T11:18:07.763Z,17.80
2022-12-31T11:20:55.805Z,17.90
2022-12-31T11:23:36.483Z,17.90
2022-12-31T11:26:18.689Z,18.00
2022-12-31T11:29:14.729Z,18.00
2022-12-31T11:32:02.540Z,18.00
2022-12-31T11:35:12.557Z,18.10
2022-12-31T11:37:46.888Z,18.00
2022-12-31T11:40:50.429Z,18.00
2022-12-31T11:43:29.060Z,18.00
2022-12-31T11:46:34.988Z,17.90
2022-12-31T11:49:18.705Z,17.90
2022-12-31T11:52:07.277Z,17.90
2022-12-31T11:54:54.283Z,17.90
2022-12-31T11:57:27.648Z,17.90
2022-12-31T12:00:01.330Z,17.80
2022-12-31T12:02:33.777Z,17.80
2022-12-31T12:05:10.706Z,17.80
2022-12-31T12:07:40.085Z,17.80
2022-12-31T12:10:29.148Z,17.80
2022-12-31T12:13:02.237Z,17.90
2022-12-31T12:15:35.609Z,17.80
2022-12-31T12:18:09.027Z,17.80
2022-12-31T12:20:39.736Z,17.80
2022-12-31T12:23:16.965Z,17.80
2022-12-31T12:25:46.114Z,17.80
2022-12-31T12:28:23.671Z,17.80
2022-12-31T12:31:00.399Z,17.80
2022-12-31T12:33:30.754Z,17.90
2022-12-31T12:36:10.069Z,17.90
2022-12-31T12:38:38.725Z,17.90
2022-12-31T12:41:11.395Z,18.00
2022-12-31T12:43:40.295Z,18.00
2022-12-31T12:46:24.141Z,18.10
2022-12-31T12:48:57.411Z,18.20
2022-12-31T12:51:46.598Z,18.20
2022-12-31T12:54:28.054Z,18.30
2022-12-31T12:57:05.665Z,18.30
2022-12-31T13:00:04.074Z,18.30
2022-12-31T13:03:20.214Z,18.20
2022-12-31T13:06:07.467Z,18.20
2022-12-31T13:08:52.610Z,18.20
2022-12-31T13:11:35.052Z,18.20
2022-12-31T13:14:14.386Z,18.10
2022-12-31T13:16:49.016Z,18.00
2022-12-31T13:19:23.219Z,18.00
2022-12-31T13:21:59.103Z,17.90
2022-12-31T13:24:44.123Z,17.90
2022-12-31T13:27:19.739Z,17.90
2022-12-31T13:29:49.618Z,17.90
2022-12-31T13:32:22.745Z,17.90
2022-12-31T13:34:57.447Z,17.80
2022-12-31T13:37:33.114Z,17.80
2022-12-31T13:40:07.446Z,17.80
2022-12-31T13:42:44.768Z,17.80
2022-12-31T13:45:17.907Z,17.90
2022-12-31T13:47:51.130Z,17.90
2022-12-31T13:50:25.913Z,17.90
2022-12-31T13:53:01.218Z,17.80
2022-12-31T13:55:35.091Z,17.80
2022-12-31T13:58:10.540Z,17.70
2022-12-31T14:00:44.531Z,17.70
2022-12-31T14:03:21.134Z,17.60
2022-12-31T14:05:55.761Z,17.60
2022-12-31T14:08:25.617Z,17.50
2022-12-31T14:11:04.847Z,17.40
2022-12-31T14:13:46.111Z,17.40
2022-12-31T14:16:25.721Z,17.40
2022-12-31T14:19:03.240Z,17.40
2022-12-31T14:21:39.923Z,17.40
2022-12-31T14:24:15.375Z,17.40
2022-12-31T14:26:47.972Z,17.30
2022-12-31T14:29:27.522Z,17.30
2022-12-31T14:32:42.847Z,17.30
2022-12-31T14:35:51.611Z,17.30
2022-12-31T14:38:33.269Z,17.30
2022-12-31T14:41:13.675Z,17.30
2022-12-31T14:43:52.255Z,17.30
2022-12-31T14:46:30.842Z,17.30
2022-12-31T14:49:16.281Z,17.30
2022-12-31T14:51:44.802Z,17.20
2022-12-31T14:54:29.433Z,17.20
2022-12-31T14:57:10.081Z,17.10
2022-12-31T14:59:40.713Z,17.10
2022-12-31T15:02:27.199Z,17.00
2022-12-31T15:05:15.430Z,16.90
2022-12-31T15:07:54.389Z,16.80
2022-12-31T15:10:28.002Z,16.80
2022-12-31T15:13:07.055Z,16.70
2022-12-31T15:16:07.612Z,16.70
2022-12-31T15:18:49.706Z,16.70
2022-12-31T15:21:47.817Z,16.80
2022-12-31T15:24:21.184Z,16.70
2022-12-31T15:26:53.095Z,16.60
2022-12-31T15:29:29.236Z,16.60
2022-12-31T15:31:59.607Z,16.60
2022-12-31T15:34:30.927Z,16.60
2022-12-31T15:37:01.528Z,16.60
2022-12-31T15:39:42.170Z,16.50
2022-12-31T15:42:47.145Z,16.50
2022-12-31T15:45:25.565Z,16.50
2022-12-31T15:47:57.777Z,16.40
2022-12-31T15:50:27.213Z,16.30
2022-12-31T15:52:58.486Z,16.30
2022-12-31T15:55:31.169Z,16.40
2022-12-31T15:58:04.131Z,16.30
2022-12-31T16:00:51.952Z,16.30
2022-12-31T16:03:24.103Z,16.20
2022-12-31T16:05:55.220Z,16.20
2022-12-31T16:08:26.576Z,16.20
2022-12-31T16:10:55.596Z,16.10
2022-12-31T16:13:26.273Z,16.10
2022-12-31T16:16:02.706Z,16.20
2022-12-31T16:18:39.358Z,16.10
2022-12-31T16:21:08.055Z,16.10
2022-12-31T16:23:42.195Z,16.10
2022-12-31T16:26:12.007Z,16.00
2022-12-31T16:28:40.614Z,16.00
2022-12-31T16:31:19.732Z,16.00
2022-12-31T16:33:48.481Z,15.90
2022-12-31T16:36:22.020Z,15.90
2022-12-31T16:38:51.067Z,15.90
2022-12-31T16:41:22.083Z,15.90
2022-12-31T16:43:51.681Z,15.80
2022-12-31T16:46:26.888Z,15.80
2022-12-31T16:48:57.765Z,15.80
2022-12-31T16:51:29.978Z,15.80
2022-12-31T16:53:59.292Z,15.80
2022-12-31T16:56:35.284Z,15.80
2022-12-31T16:59:06.257Z,15.80
2022-12-31T17:01:38.477Z,15.80
2022-12-31T17:04:12.010Z,15.70
2022-12-31T17:06:40.619Z,15.70
2022-12-31T17:09:14.425Z,15.70
2022-12-31T17:11:51.658Z,15.60
2022-12-31T17:14:23.057Z,15.60
2022-12-31T17:17:02.698Z,15.60
2022-12-31T17:19:39.920Z,15.70
2022-12-31T17:22:14.137Z,15.70
2022-12-31T17:24:42.926Z,15.70
2022-12-31T17:27:11.874Z,15.60
2022-12-31T17:29:40.394Z,16.20
2022-12-31T17:32:30.354Z,15.60
2022-12-31T17:34:58.881Z,15.60
2022-12-31T17:37:29.365Z,15.60
2022-12-31T17:40:17.453Z,15.50
2022-12-31T17:42:50.077Z,15.50
2022-12-31T17:45:22.510Z,15.50
2022-12-31T17:47:55.605Z,15.50
2022-12-31T17:50:26.577Z,15.50
2022-12-31T17:52:58.313Z,15.50
2022-12-31T17:55:29.361Z,15.50
2022-12-31T17:57:59.400Z,15.50
2022-12-31T18:00:28.360Z,15.50
2022-12-31T18:02:58.299Z,15.50
2022-12-31T18:05:27.445Z,15.40
2022-12-31T18:07:56.175Z,15.50
2022-12-31T18:10:27.428Z,15.40
2022-12-31T18:12:56.201Z,15.40
2022-12-31T18:15:25.791Z,15.40
2022-12-31T18:17:54.814Z,15.40
2022-12-31T18:20:25.569Z,15.40
2022-12-31T18:22:55.717Z,15.40
2022-12-31T18:25:25.451Z,15.40
2022-12-31T18:27:54.261Z,15.40
2022-12-31T18:30:23.410Z,15.40
2022-12-31T18:32:52.114Z,15.40
2022-12-31T18:35:57.775Z,15.40
2022-12-31T18:38:16.808Z,15.40
2022-12-31T18:40:49.140Z,15.40
2022-12-31T18:43:19.220Z,15.40
2022-12-31T18:45:48.506Z,15.40
2022-12-31T18:48:17.215Z,15.40
2022-12-31T18:50:46.577Z,15.40
2022-12-31T18:53:20.901Z,15.30
2022-12-31T18:55:51.421Z,15.30
2022-12-31T18:58:20.440Z,15.30
2022-12-31T19:00:50.291Z,15.30
2022-12-31T19:03:20.982Z,15.30
2022-12-31T19:05:51.423Z,15.30
2022-12-31T19:08:22.817Z,15.30
2022-12-31T19:10:53.486Z,15.30
2022-12-31T19:13:23.305Z,15.30
2022-12-31T19:15:55.508Z,15.30
2022-12-31T19:18:24.060Z,15.30
2022-12-31T19:20:53.060Z,15.30
2022-12-31T19:23:23.000Z,15.30
2022-12-31T19:25:51.738Z,15.30
2022-12-31T19:28:22.020Z,15.30
2022-12-31T19:30:51.268Z,15.40
2022-12-31T19:33:20.559Z,15.30
2022-12-31T19:35:49.377Z,15.40
2022-12-31T19:38:20.208Z,15.40
2022-12-31T19:40:50.650Z,15.40
2022-12-31T19:43:20.885Z,15.40
2022-12-31T19:45:50.838Z,15.40
2022-12-31T19:48:28.562Z,15.30
2022-12-31T19:51:00.922Z,15.40
2022-12-31T19:53:29.596Z,15.40
2022-12-31T19:55:59.459Z,15.40
2022-12-31T19:58:28.560Z,15.40
2022-12-31T20:01:02.697Z,15.40
2022-12-31T20:03:32.826Z,15.30
2022-12-31T20:06:04.130Z,15.30
2022-12-31T20:08:32.632Z,15.30
2022-12-31T20:11:10.200Z,15.20
2022-12-31T20:13:39.607Z,15.20
2022-12-31T20:16:09.220Z,15.20
2022-12-31T20:18:38.768Z,15.10
2022-12-31T20:21:11.283Z,15.10
2022-12-31T20:23:39.865Z,15.10
2022-12-31T20:26:09.912Z,15.20
2022-12-31T20:28:39.269Z,15.10
2022-12-31T20:31:08.685Z,15.20
2022-12-31T20:33:37.392Z,15.20
2022-12-31T20:36:08.483Z,15.20
2022-12-31T20:38:37.240Z,15.20
2022-12-31T20:41:07.103Z,15.20
2022-12-31T20:43:37.505Z,15.20
2022-12-31T20:46:14.795Z,15.20
2022-12-31T20:48:43.724Z,15.20
2022-12-31T20:51:12.738Z,15.20
2022-12-31T20:53:45.964Z,15.20
2022-12-31T20:56:14.482Z,15.20
2022-12-31T20:58:44.638Z,15.20
2022-12-31T21:01:15.001Z,15.20
2022-12-31T21:06:34.123Z,15.20
2022-12-31T21:09:04.181Z,15.20
2022-12-31T21:11:52.769Z,15.10
2022-12-31T21:14:22.850Z,15.10
2022-12-31T21:16:51.879Z,15.10
2022-12-31T21:19:20.423Z,15.00
2022-12-31T21:21:49.800Z,15.00
2022-12-31T21:24:23.552Z,15.00
2022-12-31T21:26:55.454Z,15.00
2022-12-31T21:29:28.792Z,15.00
2022-12-31T21:31:59.804Z,15.00
2022-12-31T21:34:28.372Z,15.10
2022-12-31T21:36:57.055Z,15.10
2022-12-31T21:39:25.558Z,15.00
2022-12-31T21:41:54.163Z,15.00
2022-12-31T21:44:25.886Z,15.00
2022-12-31T21:47:37.460Z,15.10
2022-12-31T21:50:09.299Z,15.10
2022-12-31T21:52:37.820Z,15.10
2022-12-31T21:55:25.029Z,15.20
2022-12-31T22:01:01.869Z,15.20
2022-12-31T22:03:31.748Z,15.20
2022-12-31T22:06:02.905Z,15.20
2022-12-31T22:08:32.553Z,15.10
2022-12-31T22:11:01.102Z,15.20
2022-12-31T22:13:29.777Z,15.10
2022-12-31T22:16:05.347Z,15.00
2022-12-31T22:18:38.586Z,15.00
2022-12-31T22:21:17.428Z,15.00
2022-12-31T22:23:49.010Z,15.10
2022-12-31T22:26:19.814Z,14.90
2022-12-31T22:28:48.787Z,14.90
2022-12-31T22:31:20.915Z,14.90
2022-12-31T22:33:49.661Z,14.90
2022-12-31T22:36:19.836Z,14.90
2022-12-31T22:38:48.926Z,15.00
2022-12-31T22:41:19.746Z,15.00
2022-12-31T22:43:49.961Z,15.00
2022-12-31T22:46:21.802Z,15.00
2022-12-31T22:48:51.261Z,15.00
2022-12-31T22:51:21.042Z,15.00
2022-12-31T22:53:49.705Z,15.00
2022-12-31T22:56:19.831Z,15.00
2022-12-31T22:58:48.562Z,15.00
2022-12-31T23:01:21.759Z,14.90
2022-12-31T23:03:52.371Z,14.90
2022-12-31T23:06:21.467Z,14.90
2022-12-31T23:09:04.259Z,14.90
2022-12-31T23:11:33.488Z,14.90
2022-12-31T23:14:20.124Z,14.80
2022-12-31T23:17:30.745Z,14.90
2022-12-31T23:20:13.792Z,14.90
2022-12-31T23:23:00.109Z,14.80
2022-12-31T23:25:28.675Z,14.80
2022-12-31T23:27:57.180Z,14.80
2022-12-31T23:30:25.755Z,14.70
2022-12-31T23:32:55.935Z,14.70
2022-12-31T23:35:24.832Z,14.60
2022-12-31T23:37:53.318Z,14.60
2022-12-31T23:40:22.215Z,14.60
2022-12-31T23:42:50.784Z,14.60
2022-12-31T23:45:19.325Z,14.60
2022-12-31T23:47:47.842Z,14.50
2022-12-31T23:50:17.902Z,14.50
2022-12-31T23:52:46.476Z,14.40
2022-12-31T23:55:15.002Z,14.50
2022-12-31T23:57:43.585Z,14.30
